createdAt,value
2023-04-11T00:01:59.923Z,98326.58
2023-04-11T00:05:03.366Z,98321.91
2023-04-11T00:08:06.534Z,98320.87
2023-04-11T00:11:09.548Z,98317.23
2023-04-11T00:14:12.780Z,98312.80
2023-04-11T00:20:30.522Z,98301.21
2023-04-11T00:23:32.236Z,98299.45
2023-04-11T00:26:34.006Z,98295.67
2023-04-11T00:29:36.399Z,98293.63
2023-04-11T00:32:38.042Z,98285.84
2023-04-11T00:35:40.142Z,98284.70
2023-04-11T00:38:42.007Z,98282.88
2023-04-11T00:41:43.882Z,98278.70
2023-04-11T00:44:45.907Z,98271.56
2023-04-11T00:47:48.909Z,98269.36
2023-04-11T00:50:50.851Z,98266.27
2023-04-11T00:53:52.704Z,98265.88
2023-04-11T00:56:57.318Z,98266.39
2023-04-11T01:00:01.150Z,98264.02
2023-04-11T01:03:03.310Z,98267.11
2023-04-11T01:06:06.986Z,98260.02
2023-04-11T01:09:08.797Z,98258.11
2023-04-11T01:12:11.838Z,98255.67
2023-04-11T01:15:13.983Z,98251.28
2023-04-11T01:18:15.726Z,98247.73
2023-04-11T01:21:18.979Z,98246.04
2023-04-11T01:24:20.827Z,98243.04
2023-04-11T01:27:22.835Z,98240.20
2023-04-11T01:30:24.672Z,98237.25
2023-04-11T01:33:26.823Z,98241.44
2023-04-11T01:36:31.665Z,98237.37
2023-04-11T01:39:33.348Z,98235.38
2023-04-11T01:42:37.255Z,98231.36
2023-04-11T01:45:39.814Z,98226.95
2023-04-11T01:48:42.717Z,98228.89
2023-04-11T01:51:45.537Z,98226.25
2023-04-11T01:54:47.266Z,98222.66
2023-04-11T01:57:48.946Z,98218.82
2023-04-11T02:00:50.712Z,98217.71
2023-04-11T02:03:54.535Z,98215.40
2023-04-11T02:06:56.310Z,98209.92
2023-04-11T02:09:58.548Z,98203.02
2023-04-11T02:13:01.170Z,98193.89
2023-04-11T02:16:11.033Z,98193.19
2023-04-11T02:19:13.409Z,98185.38
2023-04-11T02:22:15.626Z,98174.11
2023-04-11T02:25:17.319Z,98169.95
2023-04-11T02:28:19.061Z,98166.44
2023-04-11T02:31:20.790Z,98165.88
2023-04-11T02:34:22.606Z,98158.21
2023-04-11T02:37:25.494Z,98152.48
2023-04-11T02:40:27.283Z,98147.94
2023-04-11T02:43:28.997Z,98143.47
2023-04-11T02:46:30.763Z,98141.27
2023-04-11T02:49:33.566Z,98136.11
2023-04-11T02:52:36.967Z,98132.92
2023-04-11T02:55:38.675Z,98134.24
2023-04-11T02:58:41.388Z,98133.54
2023-04-11T03:01:45.114Z,98135.25
2023-04-11T03:04:46.948Z,98136.89
2023-04-11T03:07:53.657Z,98135.16
2023-04-11T03:10:55.420Z,98135.04
2023-04-11T03:13:58.839Z,98133.33
2023-04-11T03:17:00.567Z,98130.19
2023-04-11T03:20:06.614Z,98131.80
2023-04-11T03:23:09.016Z,98127.23
2023-04-11T03:26:12.472Z,98131.47
2023-04-11T03:29:14.194Z,98129.34
2023-04-11T03:32:26.424Z,98124.09
2023-04-11T03:35:28.494Z,98114.98
2023-04-11T03:38:30.439Z,98113.85
2023-04-11T03:41:32.207Z,98117.09
2023-04-11T03:44:34.236Z,98114.55
2023-04-11T03:47:37.879Z,98110.06
2023-04-11T03:50:40.034Z,98105.50
2023-04-11T03:53:41.823Z,98098.39
2023-04-11T03:57:02.178Z,98100.39
2023-04-11T04:00:05.659Z,98091.07
2023-04-11T04:03:16.898Z,98085.45
2023-04-11T04:06:19.671Z,98086.71
2023-04-11T04:09:23.459Z,98080.15
2023-04-11T04:12:28.835Z,98078.38
2023-04-11T04:16:00.657Z,98071.14
2023-04-11T04:19:04.120Z,98072.00
2023-04-11T04:22:11.033Z,98068.80
2023-04-11T04:25:16.264Z,98062.01
2023-04-11T04:28:21.744Z,98057.41
2023-04-11T04:31:29.190Z,98059.59
2023-04-11T04:34:46.156Z,98058.51
2023-04-11T04:37:49.421Z,98056.42
2023-04-11T04:41:21.452Z,98060.80
2023-04-11T04:44:28.788Z,98056.70
2023-04-11T04:47:35.688Z,98052.44
2023-04-11T04:50:37.823Z,98046.66
2023-04-11T04:53:39.658Z,98042.47
2023-04-11T04:56:43.396Z,98037.70
2023-04-11T04:59:46.479Z,98033.81
2023-04-11T05:02:49.299Z,98025.48
2023-04-11T05:05:51.603Z,98013.23
2023-04-11T05:08:56.569Z,98008.00
2023-04-11T05:11:58.358Z,97997.39
2023-04-11T05:15:00.176Z,97991.01
2023-04-11T05:18:03.277Z,97983.98
2023-04-11T05:21:07.381Z,97982.45
2023-04-11T05:24:11.472Z,97985.52
2023-04-11T05:27:13.641Z,97979.77
2023-04-11T05:30:16.501Z,97977.84
2023-04-11T05:33:18.682Z,97972.08
2023-04-11T05:36:21.996Z,97971.58
2023-04-11T05:39:23.809Z,97967.56
2023-04-11T05:42:25.539Z,97966.20
2023-04-11T05:45:27.441Z,97964.45
2023-04-11T05:48:29.342Z,97960.30
2023-04-11T05:51:31.083Z,97961.50
2023-04-11T05:54:35.015Z,97954.42
2023-04-11T05:57:36.703Z,97954.38
2023-04-11T06:00:38.839Z,97946.91
2023-04-11T06:03:52.570Z,97942.17
2023-04-11T06:06:55.222Z,97932.88
2023-04-11T06:09:56.782Z,97933.45
2023-04-11T06:12:58.555Z,97929.17
2023-04-11T06:16:00.810Z,97924.33
2023-04-11T06:19:03.882Z,97921.45
2023-04-11T06:22:05.677Z,97922.88
2023-04-11T06:25:07.954Z,97920.38
2023-04-11T06:28:09.593Z,97921.96
2023-04-11T06:31:11.375Z,97925.25
2023-04-11T06:34:12.976Z,97922.28
2023-04-11T06:37:14.604Z,97915.87
2023-04-11T06:40:16.644Z,97912.42
2023-04-11T06:43:22.418Z,97906.53
2023-04-11T06:46:24.267Z,97899.71
2023-04-11T06:49:27.520Z,97892.80
2023-04-11T06:52:29.897Z,97881.34
2023-04-11T06:55:31.536Z,97874.88
2023-04-11T06:58:33.179Z,97868.45
2023-04-11T07:01:38.615Z,97876.98
2023-04-11T07:04:40.756Z,97878.52
2023-04-11T07:07:42.548Z,97880.06
2023-04-11T07:10:44.190Z,97883.56
2023-04-11T07:13:46.602Z,97886.30
2023-04-11T07:16:48.440Z,97883.75
2023-04-11T07:19:50.771Z,97879.77
2023-04-11T07:22:53.641Z,97877.34
2023-04-11T07:25:55.293Z,97872.66
2023-04-11T07:28:56.930Z,97867.05
2023-04-11T07:31:58.729Z,97863.34
2023-04-11T07:35:00.623Z,97852.56
2023-04-11T07:38:02.326Z,97840.71
2023-04-11T07:41:05.043Z,97832.84
2023-04-11T07:44:07.271Z,97836.49
2023-04-11T07:47:08.849Z,97829.48
2023-04-11T07:50:10.878Z,97827.14
2023-04-11T07:53:13.205Z,97828.01
2023-04-11T07:56:14.981Z,97831.88
2023-04-11T07:59:16.708Z,97829.69
2023-04-11T08:02:18.506Z,97830.64
2023-04-11T08:05:22.492Z,97831.34
2023-04-11T08:08:25.317Z,97824.48
2023-04-11T08:11:26.933Z,97821.49
2023-04-11T08:14:28.717Z,97817.14
2023-04-11T08:17:37.271Z,97817.59
2023-04-11T08:20:40.210Z,97812.77
2023-04-11T08:23:41.869Z,97808.70
2023-04-11T08:26:44.180Z,97804.86
2023-04-11T08:29:45.924Z,97801.80
2023-04-11T08:32:48.972Z,97800.06
2023-04-11T08:35:51.148Z,97801.77
2023-04-11T08:38:54.661Z,97796.05
2023-04-11T08:41:56.332Z,97795.48
2023-04-11T08:45:01.270Z,97786.73
2023-04-11T08:48:03.429Z,97781.04
2023-04-11T08:51:05.812Z,97780.84
2023-04-11T08:54:08.969Z,97772.77
2023-04-11T08:57:14.377Z,97772.36
2023-04-11T09:00:18.202Z,97770.52
2023-04-11T09:03:20.150Z,97763.69
2023-04-11T09:06:22.225Z,97757.98
2023-04-11T09:09:31.875Z,97749.63
2023-04-11T09:12:33.745Z,97744.29
2023-04-11T09:15:35.734Z,97741.63
2023-04-11T09:18:39.715Z,97746.39
2023-04-11T09:21:49.407Z,97741.48
2023-04-11T09:25:03.586Z,97734.46
2023-04-11T09:28:10.161Z,97733.81
2023-04-11T09:31:13.052Z,97731.11
2023-04-11T09:34:22.969Z,97732.41
2023-04-11T09:37:24.970Z,97731.73
2023-04-11T09:40:31.143Z,97728.89
2023-04-11T09:43:51.789Z,97721.98
2023-04-11T09:46:58.284Z,97713.52
2023-04-11T09:50:00.450Z,97711.52
2023-04-11T09:53:03.021Z,97707.58
2023-04-11T09:56:11.008Z,97699.27
2023-04-11T09:59:16.715Z,97690.09
2023-04-11T10:02:18.558Z,97683.33
2023-04-11T10:05:27.956Z,97675.19
2023-04-11T10:08:35.189Z,97669.33
2023-04-11T10:11:40.714Z,97666.39
2023-04-11T10:14:43.476Z,97659.88
2023-04-11T10:18:13.928Z,97657.51
2023-04-11T10:21:30.375Z,97649.45
2023-04-11T10:24:32.084Z,97647.14
2023-04-11T10:27:49.204Z,97641.38
2023-04-11T10:31:03.555Z,97636.09
2023-04-11T10:34:14.457Z,97629.27
2023-04-11T10:37:17.266Z,97628.97
2023-04-11T10:40:20.082Z,97627.48
2023-04-11T10:43:21.837Z,97622.94
2023-04-11T10:46:25.211Z,97619.10
2023-04-11T10:49:37.040Z,97618.84
2023-04-11T10:52:39.142Z,97611.21
2023-04-11T10:55:50.737Z,97611.66
2023-04-11T10:58:52.800Z,97598.99
2023-04-11T11:01:55.502Z,97593.48
2023-04-11T11:04:58.474Z,97596.20
2023-04-11T11:08:00.472Z,97600.20
2023-04-11T11:11:09.869Z,97596.26
2023-04-11T11:14:27.438Z,97595.91
2023-04-11T11:17:29.154Z,97588.77
2023-04-11T11:20:30.983Z,97593.38
2023-04-11T11:23:34.961Z,97594.88
2023-04-11T11:26:40.969Z,97592.95
2023-04-11T11:29:43.143Z,97599.34
2023-04-11T11:32:45.022Z,97596.67
2023-04-11T11:35:57.022Z,97597.69
2023-04-11T11:38:59.098Z,97595.34
2023-04-11T11:42:01.277Z,97590.63
2023-04-11T11:45:13.294Z,97599.20
2023-04-11T11:48:24.440Z,97600.57
2023-04-11T11:51:26.736Z,97595.62
2023-04-11T11:54:28.416Z,97593.41
2023-04-11T11:57:30.049Z,97592.48
2023-04-11T12:00:40.025Z,97589.11
2023-04-11T12:03:41.973Z,97587.73
2023-04-11T12:06:45.945Z,97586.29
2023-04-11T12:09:48.658Z,97583.80
2023-04-11T12:12:53.582Z,97581.08
2023-04-11T12:15:57.972Z,97582.80
2023-04-11T12:19:02.267Z,97575.98
2023-04-11T12:22:04.125Z,97576.59
2023-04-11T12:25:07.936Z,97567.91
2023-04-11T12:28:12.476Z,97568.27
2023-04-11T12:31:14.245Z,97561.03
2023-04-11T12:34:20.290Z,97563.61
2023-04-11T12:37:22.943Z,97560.25
2023-04-11T12:40:25.110Z,97554.25
2023-04-11T12:43:27.020Z,97549.52
2023-04-11T12:46:29.418Z,97545.23
2023-04-11T12:49:31.259Z,97541.71
2023-04-11T12:52:33.679Z,97536.34
2023-04-11T12:55:35.454Z,97528.84
2023-04-11T12:58:37.202Z,97518.43
2023-04-11T13:01:39.074Z,97523.02
2023-04-11T13:04:41.116Z,97522.90
2023-04-11T13:07:43.986Z,97518.81
2023-04-11T13:10:45.682Z,97519.89
2023-04-11T13:13:49.179Z,97518.34
2023-04-11T13:16:51.058Z,97514.34
2023-04-11T13:19:52.778Z,97510.91
2023-04-11T13:22:54.420Z,97511.61
2023-04-11T13:25:56.076Z,97506.61
2023-04-11T13:28:58.115Z,97503.86
2023-04-11T13:32:00.287Z,97498.88
2023-04-11T13:35:03.240Z,97496.95
2023-04-11T13:38:05.271Z,97491.92
2023-04-11T13:41:07.007Z,97487.48
2023-04-11T13:44:08.588Z,97482.89
2023-04-11T13:47:10.306Z,97481.17
2023-04-11T13:50:12.083Z,97482.45
2023-04-11T13:53:13.864Z,97475.96
2023-04-11T13:56:15.507Z,97472.69
2023-04-11T13:59:17.329Z,97471.02
2023-04-11T14:02:19.093Z,97470.77
2023-04-11T14:05:21.408Z,97468.08
2023-04-11T14:08:23.108Z,97469.41
2023-04-11T14:11:24.937Z,97464.45
2023-04-11T14:14:26.604Z,97468.83
2023-04-11T14:17:29.269Z,97471.66
2023-04-11T14:20:30.871Z,97467.17
2023-04-11T14:23:32.623Z,97462.92
2023-04-11T14:26:34.275Z,97466.33
2023-04-11T14:29:36.971Z,97464.78
2023-04-11T14:32:39.434Z,97472.48
2023-04-11T14:35:42.173Z,97469.69
2023-04-11T14:38:43.786Z,97473.16
2023-04-11T14:41:47.041Z,97473.92
2023-04-11T14:44:49.697Z,97471.95
2023-04-11T14:47:51.783Z,97475.23
2023-04-11T14:50:54.753Z,97475.25
2023-04-11T14:53:56.954Z,97477.95
2023-04-11T14:56:59.050Z,97483.08
2023-04-11T15:00:01.133Z,97483.94
2023-04-11T15:03:03.627Z,97484.38
2023-04-11T15:06:06.197Z,97487.12
2023-04-11T15:09:08.836Z,97493.60
2023-04-11T15:12:10.668Z,97491.21
2023-04-11T15:15:13.108Z,97505.13
2023-04-11T15:18:32.801Z,97503.41
2023-04-11T15:21:35.166Z,97509.59
2023-04-11T15:24:37.153Z,97517.05
2023-04-11T15:27:39.130Z,97520.98
2023-04-11T15:30:49.885Z,97523.50
2023-04-11T15:33:54.951Z,97533.23
2023-04-11T15:36:57.170Z,97532.89
2023-04-11T15:39:59.173Z,97533.88
2023-04-11T15:43:01.431Z,97538.68
2023-04-11T15:46:03.173Z,97539.16
2023-04-11T15:49:05.237Z,97542.86
2023-04-11T15:52:07.132Z,97545.55
2023-04-11T15:55:09.760Z,97548.30
2023-04-11T15:58:11.603Z,97549.91
2023-04-11T16:01:23.546Z,97549.71
2023-04-11T16:04:26.721Z,97553.73
2023-04-11T16:07:30.355Z,97554.85
2023-04-11T16:10:33.966Z,97553.97
2023-04-11T16:13:37.091Z,97555.54
2023-04-11T16:16:39.096Z,97552.42
2023-04-11T16:19:41.824Z,97547.59
2023-04-11T16:22:45.804Z,97543.10
2023-04-11T16:25:47.532Z,97545.45
2023-04-11T16:28:52.150Z,97549.30
2023-04-11T16:31:54.853Z,97552.65
2023-04-11T16:34:57.526Z,97554.28
2023-04-11T16:38:00.453Z,97554.33
2023-04-11T16:41:03.122Z,97556.11
2023-04-11T16:44:10.720Z,97556.71
2023-04-11T16:47:12.803Z,97555.83
2023-04-11T16:50:15.298Z,97555.07
2023-04-11T16:53:17.940Z,97554.21
2023-04-11T16:56:19.673Z,97552.44
2023-04-11T16:59:22.404Z,97552.12
2023-04-11T17:02:24.657Z,97550.86
2023-04-11T17:05:26.940Z,97552.04
2023-04-11T17:08:29.399Z,97555.12
2023-04-11T17:11:31.866Z,97561.91
2023-04-11T17:14:36.047Z,97568.58
2023-04-11T17:17:38.028Z,97574.33
2023-04-11T17:20:40.971Z,97576.32
2023-04-11T17:23:43.706Z,97575.34
2023-04-11T17:26:45.891Z,97571.23
2023-04-11T17:29:47.597Z,97566.02
2023-04-11T17:32:49.400Z,97570.96
2023-04-11T17:35:52.325Z,97573.03
2023-04-11T17:38:54.282Z,97573.92
2023-04-11T17:41:56.854Z,97578.41
2023-04-11T17:45:03.767Z,97577.98
2023-04-11T17:48:12.261Z,97580.11
2023-04-11T17:51:13.961Z,97585.64
2023-04-11T17:54:15.850Z,97590.23
2023-04-11T17:57:18.396Z,97592.77
2023-04-11T18:00:25.663Z,97599.61
2023-04-11T18:03:27.715Z,97607.88
2023-04-11T18:06:33.475Z,97613.37
2023-04-11T18:09:35.216Z,97620.21
2023-04-11T18:12:38.388Z,97623.13
2023-04-11T18:15:40.422Z,97620.45
2023-04-11T18:18:42.217Z,97626.04
2023-04-11T18:21:44.096Z,97627.30
2023-04-11T18:24:45.811Z,97631.29
2023-04-11T18:27:47.591Z,97626.17
2023-04-11T18:30:49.526Z,97626.11
2023-04-11T18:33:51.407Z,97626.58
2023-04-11T18:36:53.172Z,97628.70
2023-04-11T18:39:55.123Z,97632.84
2023-04-11T18:42:58.470Z,97639.35
2023-04-11T18:46:01.452Z,97643.91
2023-04-11T18:49:04.056Z,97650.34
2023-04-11T18:52:07.274Z,97651.29
2023-04-11T18:55:09.782Z,97655.14
2023-04-11T18:58:13.596Z,97660.16
2023-04-11T19:01:22.418Z,97662.98
2023-04-11T19:04:24.728Z,97665.25
2023-04-11T19:07:26.839Z,97663.69
2023-04-11T19:10:28.822Z,97667.92
2023-04-11T19:13:31.013Z,97664.63
2023-04-11T19:16:33.613Z,97665.42
2023-04-11T19:19:35.723Z,97659.71
2023-04-11T19:22:40.069Z,97663.02
2023-04-11T19:25:42.269Z,97663.24
2023-04-11T19:28:44.372Z,97658.93
2023-04-11T19:31:46.395Z,97659.41
2023-04-11T19:34:48.994Z,97654.30
2023-04-11T19:37:50.788Z,97653.98
2023-04-11T19:40:52.818Z,97655.83
2023-04-11T19:43:55.511Z,97655.20
2023-04-11T19:46:57.423Z,97656.54
2023-04-11T19:49:59.931Z,97660.06
2023-04-11T19:53:01.637Z,97661.07
2023-04-11T19:56:05.759Z,97664.44
2023-04-11T19:59:07.415Z,97670.89
2023-04-11T20:02:09.198Z,97670.73
2023-04-11T20:05:13.135Z,97672.55
2023-04-11T20:08:14.876Z,97672.95
2023-04-11T20:11:16.701Z,97672.41
2023-04-11T20:14:18.450Z,97671.16
2023-04-11T20:17:20.471Z,97665.38
2023-04-11T20:20:26.321Z,97668.69
2023-04-11T20:23:30.189Z,97665.02
2023-04-11T20:26:33.033Z,97667.63
2023-04-11T20:29:37.706Z,97668.90
2023-04-11T20:32:40.455Z,97665.47
2023-04-11T20:35:42.889Z,97666.73
2023-04-11T20:38:44.575Z,97667.63
2023-04-11T20:41:46.302Z,97665.21
2023-04-11T20:44:48.889Z,97671.12
2023-04-11T20:47:52.526Z,97668.93
2023-04-11T20:50:56.093Z,97665.58
2023-04-11T20:53:58.569Z,97664.80
2023-04-11T20:57:00.750Z,97669.44
2023-04-11T21:00:13.301Z,97665.20
2023-04-11T21:03:15.036Z,97666.68
2023-04-11T21:06:17.251Z,97664.89
2023-04-11T21:09:19.377Z,97670.08
2023-04-11T21:12:21.258Z,97669.38
2023-04-11T21:15:23.061Z,97671.58
2023-04-11T21:18:24.948Z,97668.83
2023-04-11T21:21:27.615Z,97667.73
2023-04-11T21:24:33.812Z,97667.42
2023-04-11T21:27:35.557Z,97673.56
2023-04-11T21:30:39.001Z,97676.16
2023-04-11T21:33:41.162Z,97679.30
2023-04-11T21:36:42.946Z,97676.73
2023-04-11T21:39:44.870Z,97676.50
2023-04-11T21:42:46.621Z,97676.04
2023-04-11T21:45:48.413Z,97678.47
2023-04-11T21:48:51.463Z,97680.51
2023-04-11T21:51:53.242Z,97681.46
2023-04-11T21:54:55.167Z,97685.15
2023-04-11T21:57:57.034Z,97683.42
2023-04-11T22:21:50.350Z,97681.57
2023-04-11T22:29:29.904Z,97687.52
2023-04-11T22:37:00.904Z,97684.90
2023-04-11T22:40:21.571Z,97686.48
2023-04-11T23:08:22.639Z,97689.42
2023-04-11T23:11:24.424Z,97684.25
2023-04-11T23:14:30.471Z,97689.96
2023-04-11T23:17:32.549Z,97687.39
2023-04-11T23:20:36.420Z,97693.20
2023-04-11T23:23:38.236Z,97690.54
2023-04-11T23:26:40.520Z,97685.30
2023-04-11T23:29:48.327Z,97692.58
2023-04-11T23:32:50.541Z,97686.25
2023-04-11T23:35:52.449Z,97687.58
2023-04-11T23:38:54.503Z,97687.36
2023-04-11T23:41:56.532Z,97685.08
2023-04-11T23:44:58.225Z,97681.80
2023-04-11T23:48:00.009Z,97679.00
2023-04-11T23:51:01.899Z,97677.19
2023-04-11T23:54:04.493Z,97680.80
2023-04-11T23:57:06.507Z,97679.79
